createdAt,value
2022-12-25T00:00:37.546Z,7.85
2022-12-25T00:03:40.614Z,7.47
2022-12-25T00:06:43.273Z,7.60
2022-12-25T00:09:45.825Z,6.07
2022-12-25T00:12:47.958Z,6.90
2022-12-25T00:15:50.184Z,7.05
2022-12-25T00:18:53.350Z,5.70
2022-12-25T00:21:55.300Z,6.40
2022-12-25T00:24:57.330Z,6.93
2022-12-25T00:27:59.347Z,6.70
2022-12-25T00:31:05.252Z,6.93
2022-12-25T00:34:07.362Z,5.80
2022-12-25T00:37:09.350Z,5.57
2022-12-25T00:40:14.224Z,6.50
2022-12-25T00:43:16.145Z,7.68
2022-12-25T00:46:18.468Z,6.60
2022-12-25T00:49:26.027Z,6.80
2022-12-25T00:52:28.015Z,6.80
2022-12-25T00:55:31.288Z,7.78
2022-12-25T00:58:35.135Z,7.60
2022-12-25T01:01:38.284Z,7.38
2022-12-25T01:04:40.423Z,7.50
2022-12-25T01:07:42.418Z,9.88
2022-12-25T01:10:44.464Z,10.75
2022-12-25T01:13:46.474Z,11.52
2022-12-25T01:16:48.524Z,7.85
2022-12-25T01:19:50.827Z,8.17
2022-12-25T01:22:53.383Z,8.48
2022-12-25T01:25:55.297Z,9.25
2022-12-25T01:28:57.759Z,7.43
2022-12-25T01:31:59.764Z,8.10
2022-12-25T01:35:01.870Z,5.13
2022-12-25T01:38:04.012Z,6.30
2022-12-25T01:41:06.212Z,7.00
2022-12-25T01:44:28.424Z,5.90
2022-12-25T01:47:30.497Z,5.50
2022-12-25T01:50:34.065Z,5.53
2022-12-25T01:53:37.457Z,6.10
2022-12-25T01:56:42.016Z,5.70
2022-12-25T01:59:44.297Z,5.20
2022-12-25T02:02:46.957Z,5.00
2022-12-25T02:05:51.594Z,5.57
2022-12-25T02:08:53.784Z,5.20
2022-12-25T02:11:58.561Z,5.53
2022-12-25T02:15:22.325Z,5.35
2022-12-25T02:18:56.182Z,5.60
2022-12-25T02:22:13.379Z,4.97
2022-12-25T02:25:49.924Z,6.82
2022-12-25T02:29:01.716Z,7.38
2022-12-25T02:32:25.432Z,6.63
2022-12-25T02:35:31.844Z,7.13
2022-12-25T02:38:59.761Z,8.70
2022-12-25T02:42:07.008Z,7.57
2022-12-25T02:45:28.116Z,8.73
2022-12-25T02:48:52.973Z,7.82
2022-12-25T02:52:17.992Z,10.00
2022-12-25T02:55:43.385Z,10.13
2022-12-25T02:59:06.266Z,10.25
2022-12-25T03:02:27.469Z,9.07
2022-12-25T03:05:50.528Z,9.25
2022-12-25T03:09:17.199Z,9.00
2022-12-25T03:12:24.977Z,8.90
2022-12-25T03:15:45.320Z,8.73
2022-12-25T03:18:47.643Z,8.10
2022-12-25T03:22:08.692Z,8.73
2022-12-25T03:25:29.680Z,8.75
2022-12-25T03:28:31.798Z,8.13
2022-12-25T03:31:36.613Z,7.68
2022-12-25T03:35:24.433Z,8.52
2022-12-25T03:38:51.804Z,8.88
2022-12-25T03:42:19.437Z,10.02
2022-12-25T03:45:53.538Z,7.70
2022-12-25T03:49:24.906Z,9.30
2022-12-25T03:52:47.733Z,9.63
2022-12-25T03:56:10.007Z,14.50
2022-12-25T03:59:31.020Z,10.32
2022-12-25T04:02:51.916Z,9.07
2022-12-25T04:06:12.670Z,8.93
2022-12-25T04:09:33.267Z,9.02
2022-12-25T04:12:54.029Z,7.60
2022-12-25T04:16:15.112Z,10.13
2022-12-25T04:19:35.748Z,9.20
2022-12-25T04:22:56.517Z,19.10
2022-12-25T04:26:21.701Z,16.17
2022-12-25T04:29:42.155Z,15.20
2022-12-25T04:33:03.045Z,11.85
2022-12-25T04:36:12.436Z,11.60
2022-12-25T04:39:14.669Z,9.75
2022-12-25T04:42:17.648Z,12.27
2022-12-25T04:45:21.949Z,12.82
2022-12-25T04:48:24.972Z,13.23
2022-12-25T04:51:27.142Z,10.37
2022-12-25T04:54:29.106Z,11.82
2022-12-25T04:57:31.314Z,24.13
2022-12-25T05:00:33.416Z,10.68
2022-12-25T05:03:35.685Z,21.15
2022-12-25T05:06:37.869Z,17.03
2022-12-25T05:09:41.857Z,17.35
2022-12-25T05:12:44.122Z,21.45
2022-12-25T05:15:46.321Z,15.68
2022-12-25T05:18:50.124Z,12.82
2022-12-25T05:21:57.369Z,9.03
2022-12-25T05:24:59.749Z,10.70
2022-12-25T05:28:01.703Z,11.23
2022-12-25T05:31:03.829Z,9.55
2022-12-25T05:34:06.087Z,8.65
2022-12-25T05:37:08.311Z,8.97
2022-12-25T05:40:11.141Z,8.30
2022-12-25T05:43:13.395Z,7.82
2022-12-25T05:46:15.494Z,9.38
2022-12-25T05:49:17.800Z,12.07
2022-12-25T05:52:20.366Z,8.90
2022-12-25T05:55:22.542Z,11.30
2022-12-25T05:58:24.570Z,9.52
2022-12-25T06:01:28.732Z,9.88
2022-12-25T06:04:31.025Z,9.57
2022-12-25T06:07:36.861Z,8.50
2022-12-25T06:10:39.033Z,8.25
2022-12-25T06:13:41.486Z,7.95
2022-12-25T06:16:43.841Z,8.00
2022-12-25T06:19:45.789Z,9.13
2022-12-25T06:22:47.964Z,8.93
2022-12-25T06:25:50.314Z,9.32
2022-12-25T06:28:53.057Z,10.45
2022-12-25T06:31:57.466Z,10.73
2022-12-25T06:34:59.452Z,9.70
2022-12-25T06:38:01.496Z,8.13
2022-12-25T06:41:12.842Z,7.88
2022-12-25T06:44:14.892Z,8.73
2022-12-25T06:47:17.275Z,8.65
2022-12-25T06:50:19.490Z,8.68
2022-12-25T06:53:21.387Z,8.37
2022-12-25T06:56:27.294Z,8.75
2022-12-25T06:59:30.000Z,8.60
2022-12-25T07:02:33.481Z,9.02
2022-12-25T07:05:35.545Z,8.07
2022-12-25T07:08:37.741Z,7.97
2022-12-25T07:11:39.824Z,13.73
2022-12-25T07:14:42.561Z,24.45
2022-12-25T07:17:44.613Z,12.35
2022-12-25T07:20:46.514Z,10.80
2022-12-25T07:23:50.045Z,11.93
2022-12-25T07:26:52.398Z,10.20
2022-12-25T07:29:54.485Z,11.57
2022-12-25T07:32:57.121Z,10.57
2022-12-25T07:35:59.370Z,10.90
2022-12-25T07:39:01.428Z,11.27
2022-12-25T07:42:03.602Z,14.63
2022-12-25T07:45:06.248Z,12.65
2022-12-25T07:48:11.980Z,10.50
2022-12-25T07:51:18.953Z,10.70
2022-12-25T07:54:21.301Z,11.67
2022-12-25T07:57:23.365Z,11.80
2022-12-25T08:00:29.848Z,12.30
2022-12-25T08:03:33.790Z,12.35
2022-12-25T08:06:36.395Z,12.70
2022-12-25T08:09:39.064Z,11.77
2022-12-25T08:12:41.046Z,11.57
2022-12-25T08:15:43.167Z,11.63
2022-12-25T08:18:45.252Z,11.57
2022-12-25T08:21:47.067Z,11.18
2022-12-25T08:24:49.015Z,10.27
2022-12-25T08:27:51.135Z,9.13
2022-12-25T08:30:53.256Z,10.55
2022-12-25T08:33:58.332Z,13.52
2022-12-25T08:37:00.368Z,10.60
2022-12-25T08:40:02.523Z,11.87
2022-12-25T08:43:05.218Z,12.45
2022-12-25T08:46:07.612Z,12.32
2022-12-25T08:49:09.827Z,9.57
2022-12-25T08:52:12.036Z,12.65
2022-12-25T08:55:14.264Z,10.17
2022-12-25T08:58:16.992Z,10.70
2022-12-25T09:01:19.533Z,11.07
2022-12-25T09:04:22.244Z,11.68
2022-12-25T09:07:24.380Z,13.27
2022-12-25T09:10:26.832Z,11.23
2022-12-25T09:13:29.196Z,11.15
2022-12-25T09:16:31.299Z,11.32
2022-12-25T09:19:34.238Z,11.88
2022-12-25T09:22:36.771Z,12.23
2022-12-25T09:25:39.106Z,12.50
2022-12-25T09:28:50.213Z,12.40
2022-12-25T09:31:53.765Z,12.32
2022-12-25T09:34:55.919Z,11.57
2022-12-25T09:37:58.270Z,11.30
2022-12-25T09:41:26.638Z,11.30
2022-12-25T09:44:34.213Z,10.82
2022-12-25T09:47:40.430Z,10.77
2022-12-25T09:50:58.967Z,10.77
2022-12-25T09:54:11.877Z,10.63
2022-12-25T09:57:17.158Z,12.43
2022-12-25T10:00:22.643Z,12.77
2022-12-25T10:03:44.350Z,11.45
2022-12-25T10:07:14.536Z,9.80
2022-12-25T10:10:50.985Z,9.85
2022-12-25T10:13:52.939Z,9.97
2022-12-25T10:17:32.935Z,8.57
2022-12-25T10:20:46.556Z,9.23
2022-12-25T10:24:03.427Z,8.98
2022-12-25T10:27:15.409Z,8.73
2022-12-25T10:30:27.426Z,8.53
2022-12-25T10:33:30.146Z,9.15
2022-12-25T10:36:32.968Z,9.20
2022-12-25T10:39:36.075Z,9.20
2022-12-25T10:42:44.063Z,8.38
2022-12-25T10:45:47.876Z,8.07
2022-12-25T10:48:56.875Z,8.13
2022-12-25T10:52:00.321Z,7.75
2022-12-25T10:55:12.632Z,7.07
2022-12-25T10:58:20.834Z,6.28
2022-12-25T11:01:29.206Z,5.03
2022-12-25T11:04:35.981Z,5.50
2022-12-25T11:07:51.287Z,4.93
2022-12-25T11:10:58.554Z,5.25
2022-12-25T11:14:02.879Z,5.03
2022-12-25T11:17:18.259Z,5.03
2022-12-25T11:20:21.779Z,4.45
2022-12-25T11:23:25.946Z,3.25
2022-12-25T11:26:30.612Z,3.83
2022-12-25T11:29:50.708Z,2.88
2022-12-25T11:32:56.302Z,3.13
2022-12-25T11:36:03.056Z,3.55
2022-12-25T11:39:37.065Z,2.78
2022-12-25T11:42:44.727Z,2.25
2022-12-25T11:46:16.400Z,2.50
2022-12-25T11:49:21.769Z,2.67
2022-12-25T11:52:26.017Z,3.00
2022-12-25T11:55:40.201Z,2.45
2022-12-25T11:58:43.646Z,2.15
2022-12-25T12:01:51.167Z,1.90
2022-12-25T12:05:07.025Z,1.87
2022-12-25T12:08:11.784Z,2.10
2022-12-25T12:11:53.187Z,2.45
2022-12-25T12:15:26.952Z,2.17
2022-12-25T12:18:34.498Z,2.38
2022-12-25T12:21:36.890Z,1.43
2022-12-25T12:24:42.675Z,1.67
2022-12-25T12:27:45.472Z,2.72
2022-12-25T12:30:59.121Z,2.83
2022-12-25T12:34:01.115Z,2.85
2022-12-25T12:37:18.651Z,3.27
2022-12-25T12:40:52.093Z,3.55
2022-12-25T12:44:03.051Z,3.85
2022-12-25T12:47:05.116Z,3.22
2022-12-25T12:50:08.310Z,3.20
2022-12-25T12:53:16.533Z,3.60
2022-12-25T12:56:20.510Z,2.95
2022-12-25T12:59:23.681Z,4.57
2022-12-25T13:02:59.173Z,5.00
2022-12-25T13:06:10.930Z,7.60
2022-12-25T13:09:25.102Z,6.00
2022-12-25T13:12:27.263Z,6.32
2022-12-25T13:15:34.462Z,4.50
2022-12-25T13:18:39.851Z,3.45
2022-12-25T13:21:52.630Z,3.40
2022-12-25T13:24:57.583Z,3.53
2022-12-25T13:27:59.627Z,3.90
2022-12-25T13:31:07.418Z,3.53
2022-12-25T13:34:41.081Z,3.08
2022-12-25T13:37:44.486Z,2.40
2022-12-25T13:41:14.031Z,2.43
2022-12-25T13:44:24.490Z,2.95
2022-12-25T13:47:55.822Z,2.58
2022-12-25T13:51:00.523Z,2.80
2022-12-25T13:54:07.376Z,2.60
2022-12-25T13:57:13.422Z,2.50
2022-12-25T14:00:32.382Z,3.15
2022-12-25T14:03:41.750Z,3.65
2022-12-25T14:06:44.394Z,4.45
2022-12-25T14:09:48.840Z,5.82
2022-12-25T14:12:54.559Z,7.57
2022-12-25T14:15:57.598Z,7.90
2022-12-25T14:19:02.276Z,6.90
2022-12-25T14:22:16.901Z,6.82
2022-12-25T14:25:21.054Z,6.43
2022-12-25T14:28:33.243Z,7.40
2022-12-25T14:31:38.608Z,6.90
2022-12-25T14:34:42.482Z,7.15
2022-12-25T14:37:44.978Z,6.80
2022-12-25T14:40:46.954Z,8.23
2022-12-25T14:43:56.065Z,12.23
2022-12-25T14:47:19.493Z,9.95
2022-12-25T14:50:32.369Z,10.18
2022-12-25T14:53:48.515Z,13.40
2022-12-25T14:56:53.153Z,12.82
2022-12-25T14:59:58.175Z,13.60
2022-12-25T15:03:00.895Z,11.63
2022-12-25T15:06:19.295Z,12.80
2022-12-25T15:09:22.065Z,12.25
2022-12-25T15:12:24.697Z,12.35
2022-12-25T15:15:27.332Z,13.23
2022-12-25T15:18:35.551Z,14.35
2022-12-25T15:21:37.943Z,20.50
2022-12-25T15:24:40.065Z,19.30
2022-12-25T15:27:42.732Z,19.00
2022-12-25T15:30:45.591Z,16.93
2022-12-25T15:33:48.616Z,17.17
2022-12-25T15:36:54.033Z,18.02
2022-12-25T15:39:57.421Z,16.95
2022-12-25T15:42:59.867Z,16.40
2022-12-25T15:46:02.359Z,15.57
2022-12-25T15:49:04.590Z,16.92
2022-12-25T15:52:08.145Z,17.92
2022-12-25T15:55:10.861Z,16.23
2022-12-25T15:58:13.148Z,15.45
2022-12-25T16:01:20.059Z,18.07
2022-12-25T16:04:23.900Z,15.98
2022-12-25T16:07:25.969Z,16.85
2022-12-25T16:10:32.140Z,22.65
2022-12-25T16:13:37.683Z,22.15
2022-12-25T16:16:40.214Z,25.20
2022-12-25T16:19:49.567Z,20.27
2022-12-25T16:22:51.487Z,16.95
2022-12-25T16:25:53.672Z,14.68
2022-12-25T16:28:55.922Z,11.52
2022-12-25T16:31:58.460Z,14.97
2022-12-25T16:35:00.634Z,14.55
2022-12-25T16:38:03.483Z,14.75
2022-12-25T16:41:05.838Z,12.95
2022-12-25T16:44:10.275Z,15.05
2022-12-25T16:47:12.433Z,14.50
2022-12-25T16:50:15.488Z,18.33
2022-12-25T16:53:17.444Z,17.77
2022-12-25T16:56:21.321Z,16.63
2022-12-25T16:59:23.395Z,15.05
2022-12-25T17:02:27.307Z,14.47
2022-12-25T17:05:29.410Z,18.02
2022-12-25T17:08:31.670Z,18.23
2022-12-25T17:11:33.970Z,17.05
2022-12-25T17:14:36.475Z,18.05
2022-12-25T17:17:38.901Z,14.00
2022-12-25T17:20:49.618Z,15.18
2022-12-25T17:23:55.332Z,14.77
2022-12-25T17:27:00.573Z,14.02
2022-12-25T17:30:02.789Z,16.27
2022-12-25T17:33:05.541Z,16.53
2022-12-25T17:36:11.233Z,17.95
2022-12-25T17:39:13.995Z,17.98
2022-12-25T17:42:15.951Z,16.75
2022-12-25T17:45:18.986Z,16.45
2022-12-25T17:48:21.599Z,18.70
2022-12-25T17:51:26.031Z,17.20
2022-12-25T17:54:28.583Z,18.10
2022-12-25T17:57:30.505Z,17.90
2022-12-25T18:00:32.762Z,20.55
2022-12-25T18:03:36.882Z,20.90
2022-12-25T18:06:39.277Z,25.02
2022-12-25T18:09:41.785Z,25.40
2022-12-25T18:12:45.015Z,24.38
2022-12-25T18:15:47.487Z,20.38
2022-12-25T18:18:52.604Z,22.00
2022-12-25T18:21:55.071Z,22.40
2022-12-25T18:24:57.154Z,20.67
2022-12-25T18:28:02.330Z,21.45
2022-12-25T18:31:21.100Z,20.75
2022-12-25T18:34:23.679Z,23.13
2022-12-25T18:37:28.083Z,19.55
2022-12-25T18:40:30.513Z,21.80
2022-12-25T18:43:51.355Z,23.13
2022-12-25T18:46:55.226Z,19.13
2022-12-25T18:49:57.302Z,20.50
2022-12-25T18:53:00.374Z,20.27
2022-12-25T18:56:11.954Z,20.83
2022-12-25T18:59:14.716Z,21.52
2022-12-25T19:02:18.370Z,22.20
2022-12-25T19:05:21.375Z,21.27
2022-12-25T19:08:23.637Z,17.48
2022-12-25T19:11:25.781Z,17.58
2022-12-25T19:14:29.812Z,21.35
2022-12-25T19:17:51.095Z,21.90
2022-12-25T19:20:53.672Z,15.63
2022-12-25T19:23:56.374Z,15.00
2022-12-25T19:26:58.444Z,15.52
2022-12-25T19:30:00.929Z,17.50
2022-12-25T19:33:03.759Z,15.65
2022-12-25T19:36:12.294Z,16.13
2022-12-25T19:39:15.554Z,16.88
2022-12-25T19:42:19.409Z,14.95
2022-12-25T19:45:21.913Z,14.45
2022-12-25T19:48:24.408Z,13.43
2022-12-25T19:51:29.383Z,14.57
2022-12-25T19:54:31.952Z,16.10
2022-12-25T19:57:34.206Z,14.98
2022-12-25T20:00:36.455Z,16.70
2022-12-25T20:03:45.923Z,14.90
2022-12-25T20:06:50.289Z,14.90
2022-12-25T20:09:52.313Z,22.42
2022-12-25T20:12:55.719Z,18.52
2022-12-25T20:16:01.920Z,18.20
2022-12-25T20:19:05.144Z,18.50
2022-12-25T20:22:07.299Z,14.10
2022-12-25T20:25:11.221Z,14.07
2022-12-25T20:28:13.239Z,14.98
2022-12-25T20:31:17.769Z,13.48
2022-12-25T20:34:20.138Z,13.23
2022-12-25T20:37:22.274Z,12.87
2022-12-25T20:40:25.235Z,13.65
2022-12-25T20:43:27.795Z,13.80
2022-12-25T20:46:30.258Z,14.13
2022-12-25T20:49:33.030Z,13.95
2022-12-25T20:52:35.084Z,13.00
2022-12-25T20:55:37.236Z,13.18
2022-12-25T20:58:40.115Z,14.25
2022-12-25T21:01:42.589Z,14.88
2022-12-25T21:04:46.661Z,17.52
2022-12-25T21:07:53.611Z,16.43
2022-12-25T21:11:00.757Z,17.40
2022-12-25T21:14:03.173Z,14.68
2022-12-25T21:17:05.212Z,15.88
2022-12-25T21:20:08.062Z,15.98
2022-12-25T21:23:10.044Z,15.67
2022-12-25T21:26:15.978Z,15.07
2022-12-25T21:29:18.116Z,15.20
2022-12-25T21:32:38.620Z,13.65
2022-12-25T21:35:40.790Z,13.15
2022-12-25T21:38:42.905Z,14.47
2022-12-25T21:41:45.157Z,14.43
2022-12-25T21:44:48.440Z,13.18
2022-12-25T21:47:59.948Z,13.68
2022-12-25T21:51:25.907Z,13.93
2022-12-25T21:54:27.859Z,12.73
2022-12-25T21:57:29.880Z,12.30
2022-12-25T22:00:32.052Z,11.93
2022-12-25T22:03:34.100Z,12.73
2022-12-25T22:06:55.284Z,11.57
2022-12-25T22:09:57.577Z,12.23
2022-12-25T22:13:19.288Z,11.70
2022-12-25T22:16:39.836Z,11.63
2022-12-25T22:19:45.122Z,12.07
2022-12-25T22:22:47.214Z,11.88
2022-12-25T22:25:49.141Z,10.93
2022-12-25T22:28:51.094Z,11.57
2022-12-25T22:31:53.056Z,12.15
2022-12-25T22:34:55.087Z,10.18
2022-12-25T22:37:57.131Z,11.27
2022-12-25T22:40:59.381Z,10.10
2022-12-25T22:44:18.038Z,10.18
2022-12-25T22:47:20.635Z,11.85
2022-12-25T22:50:22.890Z,10.55
2022-12-25T22:53:25.287Z,11.13
2022-12-25T22:56:27.347Z,10.03
2022-12-25T22:59:29.508Z,9.95
2022-12-25T23:02:31.698Z,11.57
2022-12-25T23:05:34.512Z,10.43
2022-12-25T23:08:37.184Z,9.27
2022-12-25T23:11:40.057Z,10.43
2022-12-25T23:14:42.107Z,9.93
2022-12-25T23:18:02.686Z,9.70
2022-12-25T23:21:23.403Z,9.02
2022-12-25T23:24:44.239Z,10.00
2022-12-25T23:27:46.295Z,9.47
2022-12-25T23:30:48.594Z,10.05
2022-12-25T23:33:50.798Z,10.55
2022-12-25T23:36:53.058Z,10.07
2022-12-25T23:39:55.316Z,10.40
2022-12-25T23:42:57.372Z,10.67
2022-12-25T23:45:59.561Z,9.88
2022-12-25T23:49:01.796Z,10.48
2022-12-25T23:52:03.862Z,10.40
2022-12-25T23:55:06.477Z,10.85
2022-12-25T23:58:08.645Z,10.10
